Time;durP1;ratioP1;P1;durP2;ratioP2;P2;SDS_P1;SDS_P2;PMS_P1;PMS_P2;Temp;Humidity;BMP_temperature;BMP_pressure;BME280_temperature;BME280_humidity;BME280_pressure;Samples;Min_cycle;Max_cycle;Signal;HPM_P1;HPM_P2
2022/05/20 00:00:30;;;;;;;20.95;18.85;;;16.90;99.90;;;;;;5070499;28;20078;-44
2022/05/20 00:02:56;;;;;;;19.77;17.85;;;16.90;99.90;;;;;;5070405;28;20063;-47
2022/05/20 00:05:21;;;;;;;22.45;20.13;;;16.80;99.90;;;;;;5070457;28;20133;-48
2022/05/20 00:07:47;;;;;;;21.05;18.90;;;16.80;99.90;;;;;;5069948;28;20044;-42
2022/05/20 00:10:17;;;;;;;23.50;20.52;;;16.80;99.90;;;;;;5070309;28;20029;-45
2022/05/20 00:12:44;;;;;;;23.58;21.20;;;16.70;99.90;;;;;;5070146;28;20082;-47
2022/05/20 00:15:14;;;;;;;21.25;18.70;;;16.70;99.90;;;;;;5070195;28;20048;-44
2022/05/20 00:17:39;;;;;;;23.65;20.50;;;16.60;99.90;;;;;;5070081;28;20035;-46
2022/05/20 00:20:07;;;;;;;20.77;18.77;;;16.60;99.90;;;;;;5070038;28;20025;-44
2022/05/20 00:22:32;;;;;;;21.88;19.67;;;16.50;99.90;;;;;;5069807;28;20669;-44
2022/05/20 00:27:43;;;;;;;25.48;22.55;;;16.50;99.90;;;;;;5070098;28;20075;-46
2022/05/20 00:30:10;;;;;;;22.77;20.40;;;16.40;99.90;;;;;;5069708;28;20494;-43
2022/05/20 00:32:35;;;;;;;25.50;22.88;;;16.40;99.90;;;;;;5069556;28;20028;-44
2022/05/20 00:35:01;;;;;;;29.10;24.33;;;16.40;99.90;;;;;;5069826;28;20025;-43
2022/05/20 00:37:27;;;;;;;24.52;21.92;;;16.30;99.90;;;;;;5070053;28;20025;-44
2022/05/20 00:39:52;;;;;;;28.08;23.77;;;16.40;99.90;;;;;;5068686;28;20064;-44
2022/05/20 00:42:18;;;;;;;28.35;25.42;;;16.40;99.90;;;;;;5065544;28;20035;-43
2022/05/20 00:44:44;;;;;;;30.02;26.27;;;16.40;99.90;;;;;;5068849;28;20166;-44
2022/05/20 00:47:12;;;;;;;30.13;26.17;;;16.40;99.90;;;;;;5067956;28;20529;-44
2022/05/20 00:49:41;;;;;;;30.65;27.02;;;16.40;99.90;;;;;;5069413;28;20535;-43
2022/05/20 00:52:09;;;;;;;33.17;27.38;;;16.30;99.90;;;;;;5067830;28;20029;-46
2022/05/20 00:54:39;;;;;;;31.85;26.42;;;16.20;99.90;;;;;;5069548;28;20033;-43
2022/05/20 00:57:21;;;;;;;30.92;26.48;;;16.20;99.90;;;;;;5069540;28;20462;-43
2022/05/20 00:59:57;;;;;;;29.75;25.17;;;16.10;99.90;;;;;;5067415;28;20051;-44
2022/05/20 01:02:25;;;;;;;35.67;29.23;;;16.10;99.90;;;;;;5065736;28;20079;-47
2022/05/20 01:04:56;;;;;;;36.15;29.23;;;16.00;99.90;;;;;;5068552;28;20123;-43
2022/05/20 01:07:23;;;;;;;35.97;28.60;;;16.00;99.90;;;;;;5069468;28;20052;-44
2022/05/20 01:09:48;;;;;;;31.45;28.10;;;15.90;99.90;;;;;;5069505;28;20433;-47
2022/05/20 01:12:14;;;;;;;35.08;27.05;;;15.80;99.90;;;;;;5069638;28;20025;-44
2022/05/20 01:14:40;;;;;;;29.48;26.13;;;15.70;99.90;;;;;;5069804;28;20028;-43
2022/05/20 01:17:07;;;;;;;34.47;27.02;;;15.70;99.90;;;;;;5068442;28;20060;-47
2022/05/20 01:19:35;;;;;;;33.15;26.70;;;15.60;99.90;;;;;;5066402;28;20017;-47
2022/05/20 01:22:02;;;;;;;29.45;24.55;;;15.60;99.90;;;;;;5066509;28;20070;-47
2022/05/20 01:24:28;;;;;;;31.60;25.52;;;15.50;99.90;;;;;;5067910;28;20025;-46
2022/05/20 01:26:53;;;;;;;31.50;26.00;;;15.40;99.90;;;;;;5068053;28;20040;-43
2022/05/20 01:29:20;;;;;;;34.63;27.42;;;15.40;99.90;;;;;;5067831;28;20096;-48
2022/05/20 01:31:45;;;;;;;35.15;27.88;;;15.30;99.90;;;;;;5067580;28;20108;-44
2022/05/20 01:34:11;;;;;;;38.70;29.08;;;15.30;99.90;;;;;;5067267;28;20107;-45
2022/05/20 01:36:37;;;;;;;31.88;26.00;;;15.20;99.90;;;;;;5069106;28;20831;-43
2022/05/20 01:39:03;;;;;;;33.75;26.10;;;15.20;99.90;;;;;;5069172;28;20027;-44
2022/05/20 01:41:57;;;;;;;34.30;24.75;;;15.10;99.90;;;;;;5069213;28;20025;-44
2022/05/20 01:44:34;;;;;;;28.38;22.48;;;14.90;99.90;;;;;;5069037;28;20028;-43
2022/05/20 01:47:25;;;;;;;26.70;22.35;;;14.90;99.90;;;;;;5069508;28;20027;-44
2022/05/20 01:50:15;;;;;;;26.40;21.10;;;14.60;99.90;;;;;;5068860;28;20059;-44
2022/05/20 01:53:08;;;;;;;23.90;21.10;;;14.50;99.90;;;;;;5063789;28;20490;-45
2022/05/20 01:56:03;;;;;;;26.92;21.42;;;14.40;99.90;;;;;;5056736;28;20036;-44
2022/05/20 01:58:35;;;;;;;27.70;21.58;;;14.40;99.90;;;;;;5021983;28;20102;-46
2022/05/20 02:01:05;;;;;;;29.65;21.45;;;14.40;99.90;;;;;;5051323;28;20068;-42
2022/05/20 02:03:40;;;;;;;27.83;21.17;;;14.30;99.90;;;;;;5052590;28;20043;-44
2022/05/20 02:06:16;;;;;;;26.75;20.77;;;14.30;99.90;;;;;;5052668;28;20045;-44
2022/05/20 02:08:49;;;;;;;27.50;21.13;;;14.20;99.90;;;;;;5052376;28;20111;-46
2022/05/20 02:11:22;;;;;;;25.58;21.08;;;14.20;99.90;;;;;;5051048;28;20503;-42
2022/05/20 02:14:03;;;;;;;26.52;21.70;;;14.20;99.90;;;;;;5052581;28;20029;-43
2022/05/20 02:16:36;;;;;;;28.65;22.40;;;14.10;99.90;;;;;;5052350;28;20021;-43
2022/05/20 02:19:36;;;;;;;29.83;22.52;;;14.10;99.90;;;;;;5052184;28;20039;-44
2022/05/20 02:22:09;;;;;;;26.70;20.88;;;14.00;99.90;;;;;;5049636;28;20068;-44
2022/05/20 02:24:37;;;;;;;24.77;18.58;;;14.00;99.90;;;;;;5052346;28;20360;-47
2022/05/20 02:27:06;;;;;;;20.58;16.88;;;13.90;99.90;;;;;;5052309;28;20021;-42
2022/05/20 02:29:45;;;;;;;20.65;15.88;;;13.90;99.90;;;;;;5051425;28;20032;-43
2022/05/20 02:32:37;;;;;;;21.60;13.77;;;13.80;99.90;;;;;;5060878;28;20530;-44
2022/05/20 02:35:03;;;;;;;13.43;11.75;;;13.70;99.90;;;;;;5071175;28;20036;-48
2022/05/20 02:37:32;;;;;;;15.80;10.90;;;13.70;99.90;;;;;;5072061;28;20033;-44
2022/05/20 02:39:58;;;;;;;14.82;13.10;;;13.60;99.90;;;;;;5071936;28;20095;-44
2022/05/20 02:42:26;;;;;;;17.15;12.77;;;13.60;99.90;;;;;;5072009;28;20441;-45
2022/05/20 02:44:54;;;;;;;17.10;13.55;;;13.40;99.90;;;;;;5071786;28;20029;-46
2022/05/20 02:47:20;;;;;;;15.75;13.85;;;13.40;99.90;;;;;;5071922;28;20082;-43
2022/05/20 02:49:45;;;;;;;16.15;13.43;;;13.40;99.90;;;;;;5071928;28;20052;-44
2022/05/20 02:52:11;;;;;;;15.50;12.82;;;13.30;99.90;;;;;;5070242;28;20056;-46
2022/05/20 02:54:37;;;;;;;19.23;14.10;;;13.20;99.90;;;;;;5071668;28;20572;-46
2022/05/20 02:57:03;;;;;;;14.95;12.63;;;13.20;99.90;;;;;;5071814;28;20060;-46
2022/05/20 03:04:58;;;;;;;20.50;13.18;;;13.20;99.90;;;;;;5071609;28;20032;-43
2022/05/20 03:07:23;;;;;;;14.68;13.10;;;13.20;99.90;;;;;;5071402;28;20048;-43
2022/05/20 03:09:51;;;;;;;15.73;12.23;;;13.20;99.90;;;;;;5071603;28;20063;-43
2022/05/20 03:12:17;;;;;;;13.45;10.07;;;13.20;99.90;;;;;;5071543;28;20024;-44
2022/05/20 03:14:43;;;;;;;12.38;10.55;;;13.20;99.90;;;;;;5071825;28;20525;-48
2022/05/20 03:17:08;;;;;;;13.02;9.60;;;13.10;99.90;;;;;;5071313;28;20028;-46
2022/05/20 03:19:34;;;;;;;11.90;10.63;;;13.10;99.90;;;;;;5071008;28;20047;-45
2022/05/20 03:22:04;;;;;;;11.57;10.35;;;13.10;99.90;;;;;;5069701;28;20044;-46
2022/05/20 03:24:30;;;;;;;10.93;9.25;;;13.10;99.90;;;;;;5071298;28;20023;-46
2022/05/20 03:26:56;;;;;;;10.98;8.60;;;13.10;99.90;;;;;;5069755;28;20029;-43
2022/05/20 03:29:22;;;;;;;10.60;8.38;;;13.20;99.90;;;;;;5070988;28;20066;-45
2022/05/20 03:31:48;;;;;;;11.52;8.93;;;13.20;99.90;;;;;;5070501;28;20112;-47
2022/05/20 03:34:14;;;;;;;9.05;7.13;;;13.20;99.90;;;;;;5070824;28;20115;-42
2022/05/20 03:36:44;;;;;;;8.60;6.07;;;13.10;99.90;;;;;;5070856;28;20024;-44
2022/05/20 03:39:11;;;;;;;9.63;6.25;;;13.10;99.90;;;;;;5070764;28;20490;-42
2022/05/20 03:41:38;;;;;;;9.18;6.32;;;13.10;99.90;;;;;;5070636;28;20036;-46
2022/05/20 03:44:05;;;;;;;7.63;6.82;;;13.10;99.90;;;;;;5069270;28;20020;-43
2022/05/20 03:46:31;;;;;;;7.45;5.75;;;13.20;99.90;;;;;;5070919;28;20032;-43
2022/05/20 03:49:00;;;;;;;6.80;5.78;;;13.10;99.90;;;;;;5069738;28;20220;-46
2022/05/20 03:51:26;;;;;;;14.77;6.05;;;13.10;99.90;;;;;;5071008;28;20440;-45
2022/05/20 03:53:52;;;;;;;7.35;4.97;;;13.10;99.90;;;;;;5069567;28;20099;-42
2022/05/20 03:56:18;;;;;;;7.10;4.97;;;13.00;99.90;;;;;;5069429;28;20542;-42
2022/05/20 03:58:43;;;;;;;8.07;4.93;;;13.10;99.90;;;;;;5070556;28;20025;-42
2022/05/20 04:03:56;;;;;;;8.43;5.40;;;13.10;99.90;;;;;;5070756;28;20055;-43
2022/05/20 04:06:22;;;;;;;6.05;5.20;;;13.10;99.90;;;;;;5070505;28;20036;-44
2022/05/20 04:08:48;;;;;;;5.95;5.25;;;13.10;99.90;;;;;;5070090;28;20036;-42
2022/05/20 04:11:14;;;;;;;7.63;5.20;;;13.10;99.90;;;;;;5070208;28;20621;-43
2022/05/20 04:13:41;;;;;;;5.95;5.25;;;13.10;99.90;;;;;;5070146;28;20025;-42
2022/05/20 04:16:08;;;;;;;6.95;6.28;;;13.10;99.90;;;;;;5068963;28;20029;-43
2022/05/20 04:18:34;;;;;;;8.40;5.88;;;13.10;99.90;;;;;;5070169;28;20024;-43
2022/05/20 04:21:01;;;;;;;10.48;5.82;;;13.20;99.90;;;;;;5069920;28;20059;-44
2022/05/20 04:23:27;;;;;;;7.45;5.80;;;13.20;99.90;;;;;;5069338;28;20374;-44
2022/05/20 04:25:52;;;;;;;8.45;6.00;;;13.20;99.90;;;;;;5070318;28;20398;-43
2022/05/20 04:28:18;;;;;;;6.03;5.53;;;13.20;99.90;;;;;;5070215;28;20032;-43
2022/05/20 04:30:44;;;;;;;9.15;5.18;;;13.20;99.90;;;;;;5070274;28;20067;-43
2022/05/20 04:33:10;;;;;;;6.93;5.40;;;13.20;99.90;;;;;;5069809;28;20021;-43
2022/05/20 04:35:36;;;;;;;6.00;5.40;;;13.20;99.90;;;;;;5070013;28;20039;-44
2022/05/20 04:38:02;;;;;;;6.60;4.90;;;13.10;99.90;;;;;;5069652;28;20020;-43
2022/05/20 04:40:28;;;;;;;7.57;5.90;;;13.10;99.90;;;;;;5069960;28;20173;-43
2022/05/20 04:48:25;;;;;;;7.80;4.93;;;13.10;99.90;;;;;;5070049;28;20035;-43
2022/05/20 04:50:51;;;;;;;6.68;4.55;;;13.20;99.90;;;;;;5068465;28;20112;-43
2022/05/20 04:56:01;;;;;;;6.50;4.35;;;13.20;99.90;;;;;;5069820;28;20062;-46
2022/05/20 04:58:27;;;;;;;7.57;4.18;;;13.20;99.90;;;;;;5069600;28;20020;-46
2022/05/20 05:00:55;;;;;;;6.57;4.20;;;13.20;99.90;;;;;;5069934;28;20512;-43
2022/05/20 05:03:20;;;;;;;5.78;3.90;;;13.30;99.90;;;;;;5069736;28;20012;-43
2022/05/20 05:05:46;;;;;;;4.88;3.33;;;13.30;99.90;;;;;;5070125;28;20047;-43
2022/05/20 05:08:16;;;;;;;5.68;3.45;;;13.30;99.90;;;;;;5069849;28;20068;-43
2022/05/20 05:10:43;;;;;;;6.00;3.70;;;13.30;99.90;;;;;;5069879;28;20095;-43
2022/05/20 05:13:09;;;;;;;3.53;2.80;;;13.30;99.90;;;;;;5069721;28;20411;-43
2022/05/20 05:15:35;;;;;;;6.50;3.80;;;13.40;99.90;;;;;;5069943;28;20485;-44
2022/05/20 05:18:11;;;;;;;8.77;4.00;;;13.30;99.90;;;;;;5068112;28;20032;-46
2022/05/20 05:20:42;;;;;;;3.97;3.67;;;13.40;99.90;;;;;;5069388;28;20394;-46
2022/05/20 05:23:08;;;;;;;4.90;3.30;;;13.50;99.90;;;;;;5069184;28;20541;-42
2022/05/20 05:25:34;;;;;;;5.68;3.50;;;13.50;99.90;;;;;;5069426;28;20025;-47
2022/05/20 05:28:00;;;;;;;4.32;3.05;;;13.50;99.90;;;;;;5069441;28;20035;-45
2022/05/20 05:30:27;;;;;;;8.30;3.58;;;13.70;99.90;;;;;;5069576;28;20029;-45
2022/05/20 05:32:53;;;;;;;6.03;3.00;;;13.80;99.90;;;;;;5069234;28;20452;-44
2022/05/20 05:35:21;;;;;;;3.25;2.95;;;13.90;99.90;;;;;;5070970;28;20107;-43
2022/05/20 05:37:47;;;;;;;5.00;3.28;;;14.00;99.90;;;;;;5071899;28;20025;-44
2022/05/20 05:40:17;;;;;;;7.10;3.45;;;14.00;99.90;;;;;;5073447;28;20031;-45
2022/05/20 05:42:43;;;;;;;5.07;2.92;;;14.10;99.90;;;;;;5073077;28;20486;-43
2022/05/20 05:45:10;;;;;;;3.97;3.05;;;14.10;99.90;;;;;;5071354;28;20035;-44
2022/05/20 05:47:36;;;;;;;6.03;3.95;;;14.10;99.90;;;;;;5073203;28;20028;-45
2022/05/20 05:50:01;;;;;;;8.90;4.07;;;14.00;99.90;;;;;;5073022;28;20102;-47
2022/05/20 05:52:27;;;;;;;4.88;4.10;;;14.00;99.90;;;;;;5072897;28;20398;-43
2022/05/20 05:54:53;;;;;;;8.73;4.63;;;13.90;99.90;;;;;;5073046;28;20056;-45
2022/05/20 05:57:18;;;;;;;6.78;4.88;;;13.90;99.90;;;;;;5072908;28;20036;-45
2022/05/20 05:59:44;;;;;;;6.20;4.20;;;14.00;99.90;;;;;;5072711;28;20078;-45
2022/05/20 06:02:09;;;;;;;4.65;3.40;;;14.00;99.90;;;;;;5072312;28;20099;-42
2022/05/20 06:04:36;;;;;;;5.13;4.03;;;13.90;99.90;;;;;;5072667;28;20108;-43
2022/05/20 06:07:05;;;;;;;4.45;2.97;;;14.00;99.90;;;;;;5071405;28;20051;-46
2022/05/20 06:09:31;;;;;;;8.93;3.35;;;14.00;99.90;;;;;;5071120;28;20523;-45
2022/05/20 06:11:57;;;;;;;7.03;4.00;;;14.00;99.90;;;;;;5072415;28;20032;-44
2022/05/20 06:14:23;;;;;;;7.22;3.90;;;14.00;99.90;;;;;;5072477;28;20383;-44
2022/05/20 06:16:48;;;;;;;6.55;3.50;;;14.20;99.90;;;;;;5072409;28;20033;-44
2022/05/20 06:19:14;;;;;;;5.72;3.35;;;14.30;99.90;;;;;;5071617;28;20048;-44
2022/05/20 06:21:40;;;;;;;6.25;3.30;;;14.40;99.90;;;;;;5071101;28;20057;-44
2022/05/20 06:24:08;;;;;;;6.65;3.55;;;14.60;99.90;;;;;;5072627;28;20051;-47
2022/05/20 06:26:35;;;;;;;7.20;3.60;;;14.60;99.90;;;;;;5072474;28;20190;-44
2022/05/20 06:29:00;;;;;;;7.47;3.17;;;14.60;99.90;;;;;;5071208;28;20107;-47
2022/05/20 06:31:26;;;;;;;5.38;3.40;;;14.60;99.90;;;;;;5071761;28;20135;-45
2022/05/20 06:33:52;;;;;;;12.07;4.05;;;14.60;99.90;;;;;;5072268;28;20032;-44
2022/05/20 06:41:47;;;;;;;4.13;2.70;;;14.50;99.90;;;;;;5072152;28;20119;-43
2022/05/20 06:44:13;;;;;;;7.05;3.45;;;14.70;99.90;;;;;;5071740;28;20496;-46
2022/05/20 06:46:39;;;;;;;3.20;2.47;;;14.80;99.90;;;;;;5071816;28;20067;-44
2022/05/20 06:49:04;;;;;;;3.72;2.60;;;14.70;99.90;;;;;;5072018;28;20034;-44
2022/05/20 06:51:35;;;;;;;4.45;2.80;;;14.70;99.90;;;;;;5071753;28;20036;-44
2022/05/20 06:54:03;;;;;;;7.40;2.20;;;14.80;99.90;;;;;;5071912;28;20032;-44
2022/05/20 06:56:30;;;;;;;6.03;2.20;;;14.90;99.90;;;;;;5071706;28;20052;-46
2022/05/20 06:58:57;;;;;;;6.90;2.45;;;14.90;99.90;;;;;;5071819;28;20025;-44
2022/05/20 07:01:23;;;;;;;3.92;2.88;;;15.00;99.90;;;;;;5071905;28;20024;-44
2022/05/20 07:03:49;;;;;;;5.40;2.85;;;15.00;99.90;;;;;;5072191;28;20097;-44
2022/05/20 07:06:16;;;;;;;4.93;2.97;;;15.00;99.90;;;;;;5071865;28;20028;-47
2022/05/20 07:08:48;;;;;;;4.70;2.50;;;15.00;99.90;;;;;;5071372;28;20051;-44
2022/05/20 07:11:15;;;;;;;4.97;2.25;;;15.00;99.90;;;;;;5071490;28;20048;-47
2022/05/20 07:13:40;;;;;;;7.25;2.67;;;14.80;99.90;;;;;;5071565;28;20050;-44
2022/05/20 07:16:07;;;;;;;4.82;2.10;;;14.90;99.90;;;;;;5070059;28;20028;-44
2022/05/20 07:18:34;;;;;;;5.03;2.03;;;15.30;99.90;;;;;;5071446;28;20448;-45
2022/05/20 07:21:00;;;;;;;5.75;2.53;;;15.50;99.90;;;;;;5069439;28;20070;-44
2022/05/20 07:23:28;;;;;;;3.67;2.10;;;15.50;99.90;;;;;;5070704;28;20070;-45
2022/05/20 07:25:54;;;;;;;3.45;2.30;;;15.50;99.90;;;;;;5070062;28;20025;-46
2022/05/20 07:28:20;;;;;;;4.93;2.10;;;15.60;99.90;;;;;;5071161;28;20488;-46
2022/05/20 07:30:45;;;;;;;7.90;2.90;;;15.50;99.90;;;;;;5071295;28;20021;-46
2022/05/20 07:33:11;;;;;;;5.55;2.42;;;15.30;99.90;;;;;;5070768;28;20046;-46
2022/05/20 07:35:38;;;;;;;4.40;2.13;;;15.20;99.90;;;;;;5071146;28;20089;-45
2022/05/20 07:38:05;;;;;;;4.40;2.97;;;15.20;99.90;;;;;;5071134;28;20029;-46
2022/05/20 07:40:30;;;;;;;4.03;2.40;;;15.40;99.90;;;;;;5071388;28;20029;-44
2022/05/20 07:42:56;;;;;;;3.33;2.15;;;15.80;99.90;;;;;;5071127;28;20023;-44
2022/05/20 07:45:22;;;;;;;7.63;2.58;;;16.00;99.90;;;;;;5070477;28;20100;-44
2022/05/20 07:47:49;;;;;;;3.20;2.03;;;16.00;99.90;;;;;;5070883;28;20056;-44
2022/05/20 07:50:14;;;;;;;4.88;2.30;;;15.90;99.90;;;;;;5070779;28;20020;-44
2022/05/20 07:55:32;;;;;;;4.38;2.03;;;15.80;99.90;;;;;;5071111;28;20081;-44
2022/05/20 07:58:00;;;;;;;3.28;2.17;;;15.60;99.90;;;;;;5070253;28;20445;-47
2022/05/20 08:00:26;;;;;;;4.13;2.13;;;15.60;99.90;;;;;;5070399;28;20535;-49
2022/05/20 08:02:53;;;;;;;4.55;2.17;;;15.50;99.90;;;;;;5070209;28;20028;-46
2022/05/20 08:05:21;;;;;;;3.58;1.92;;;15.50;99.90;;;;;;5070505;28;20162;-48
2022/05/20 08:07:48;;;;;;;6.10;2.00;;;15.40;99.90;;;;;;5070142;28;20024;-45
2022/05/20 08:10:21;;;;;;;5.63;2.22;;;15.60;99.90;;;;;;5070558;28;20036;-47
2022/05/20 08:12:47;;;;;;;5.10;2.63;;;16.00;99.90;;;;;;5070108;28;20070;-44
2022/05/20 08:15:14;;;;;;;6.40;2.20;;;16.20;99.90;;;;;;5070541;28;20471;-49
2022/05/20 08:17:40;;;;;;;4.28;2.22;;;16.40;99.90;;;;;;5070378;28;20046;-48
2022/05/20 08:20:09;;;;;;;3.20;1.80;;;16.60;99.90;;;;;;5070047;28;20449;-45
2022/05/20 08:22:36;;;;;;;3.03;1.67;;;16.80;99.90;;;;;;5069871;28;20032;-46
2022/05/20 08:25:04;;;;;;;3.08;1.92;;;16.90;99.90;;;;;;5070222;28;20024;-46
2022/05/20 08:27:31;;;;;;;4.05;1.45;;;16.80;99.90;;;;;;5069883;28;20036;-44
2022/05/20 08:30:01;;;;;;;3.28;1.60;;;16.80;99.90;;;;;;5067865;28;20060;-44
2022/05/20 08:32:26;;;;;;;2.40;1.70;;;16.70;99.90;;;;;;5057799;28;20032;-46
2022/05/20 08:34:52;;;;;;;3.92;2.05;;;16.60;99.90;;;;;;5048744;28;20040;-45
2022/05/20 08:37:18;;;;;;;2.47;1.73;;;16.70;99.90;;;;;;5049655;28;20041;-45
2022/05/20 08:39:44;;;;;;;3.13;1.67;;;16.80;99.90;;;;;;5049758;28;20657;-47
2022/05/20 08:42:17;;;;;;;3.50;1.85;;;17.00;99.90;;;;;;5049539;28;20028;-48
2022/05/20 08:44:44;;;;;;;5.28;1.70;;;17.20;99.90;;;;;;5049361;28;20021;-47
2022/05/20 08:47:40;;;;;;;2.20;1.17;;;17.50;99.90;;;;;;5049843;28;20037;-48
2022/05/20 08:50:12;;;;;;;3.92;1.55;;;17.80;99.90;;;;;;5049923;28;20044;-46
2022/05/20 08:52:38;;;;;;;1.40;1.20;;;17.90;99.90;;;;;;5049708;28;20104;-48
2022/05/20 08:55:04;;;;;;;3.13;1.77;;;18.00;99.90;;;;;;5050074;28;20072;-44
2022/05/20 08:57:33;;;;;;;3.92;2.00;;;17.90;99.90;;;;;;5050014;28;20037;-45
2022/05/20 09:00:04;;;;;;;2.35;1.25;;;17.80;99.90;;;;;;5049890;28;20043;-46
2022/05/20 09:02:30;;;;;;;2.08;1.40;;;17.70;99.90;;;;;;5048176;28;20025;-44
2022/05/20 09:04:57;;;;;;;4.22;1.30;;;17.70;99.90;;;;;;5049771;28;20079;-45
2022/05/20 09:07:23;;;;;;;2.90;1.42;;;17.80;99.90;;;;;;5049602;28;20665;-45
2022/05/20 09:09:55;;;;;;;5.82;1.27;;;18.00;99.90;;;;;;5052070;28;20047;-45
2022/05/20 09:12:26;;;;;;;2.75;1.27;;;17.80;99.90;;;;;;5053513;28;20491;-47
2022/05/20 09:18:21;;;;;;;3.15;2.00;;;17.80;99.90;;;;;;5053639;28;20564;-45
2022/05/20 09:20:52;;;;;;;6.32;1.70;;;18.40;99.90;;;;;;5049141;28;20048;-45
2022/05/20 09:23:20;;;;;;;3.78;1.73;;;18.50;99.90;;;;;;5053283;28;20029;-49
2022/05/20 09:26:07;;;;;;;1.73;1.48;;;18.50;99.90;;;;;;5053437;28;20021;-48
2022/05/20 09:28:44;;;;;;;6.15;1.92;;;18.40;99.90;;;;;;5049745;28;20036;-47
2022/05/20 09:31:22;;;;;;;4.90;2.05;;;18.30;99.90;;;;;;5052402;28;20029;-46
2022/05/20 09:34:06;;;;;;;5.85;2.05;;;18.20;99.90;;;;;;5053841;28;20032;-45
2022/05/20 09:36:37;;;;;;;4.95;1.83;;;18.30;99.90;;;;;;5053391;28;20037;-47
2022/05/20 09:39:10;;;;;;;5.97;2.67;;;18.40;99.90;;;;;;5053499;28;20025;-46
2022/05/20 09:41:45;;;;;;;2.30;1.70;;;18.40;99.90;;;;;;5053025;28;20036;-45
2022/05/20 09:44:12;;;;;;;6.65;2.17;;;18.40;99.90;;;;;;5052931;28;20064;-49
2022/05/20 09:46:54;;;;;;;4.03;2.22;;;18.60;99.90;;;;;;5053310;28;20074;-47
2022/05/20 09:49:48;;;;;;;5.40;1.85;;;18.70;99.90;;;;;;5052975;28;20032;-45
2022/05/20 09:52:40;;;;;;;4.20;1.85;;;18.70;99.90;;;;;;5052815;28;20055;-46
2022/05/20 09:55:22;;;;;;;2.25;1.75;;;18.60;99.90;;;;;;5050578;28;20423;-43
2022/05/20 09:57:48;;;;;;;3.83;2.33;;;18.60;99.90;;;;;;5052774;28;20049;-45
2022/05/20 10:00:26;;;;;;;2.17;1.65;;;18.60;99.90;;;;;;5053059;28;20029;-44
2022/05/20 10:02:54;;;;;;;4.00;1.90;;;18.70;99.90;;;;;;5052617;28;20490;-50
2022/05/20 10:05:41;;;;;;;6.15;2.00;;;18.90;99.90;;;;;;5052866;28;20387;-45
2022/05/20 10:08:34;;;;;;;3.10;2.25;;;19.10;99.90;;;;;;5052456;28;20086;-45
2022/05/20 10:11:13;;;;;;;3.42;1.80;;;19.10;99.90;;;;;;5052785;28;20021;-47
2022/05/20 10:13:46;;;;;;;4.88;2.30;;;19.20;99.90;;;;;;5052962;28;20033;-45
2022/05/20 10:16:32;;;;;;;2.95;2.15;;;18.80;99.90;;;;;;5051384;28;20029;-45
2022/05/20 10:19:08;;;;;;;3.90;2.05;;;18.70;99.90;;;;;;5052620;28;20123;-49
2022/05/20 10:21:53;;;;;;;4.30;2.20;;;18.70;99.90;;;;;;5051152;28;20605;-46
2022/05/20 10:24:46;;;;;;;4.63;2.30;;;18.90;99.90;;;;;;5052254;28;20122;-44
2022/05/20 10:27:44;;;;;;;3.60;2.33;;;18.70;99.90;;;;;;5052553;28;20029;-48
2022/05/20 10:33:07;;;;;;;4.68;2.15;;;18.70;99.90;;;;;;5052261;28;20128;-48
2022/05/20 10:35:38;;;;;;;5.30;2.35;;;18.60;99.90;;;;;;5052227;28;20036;-46
2022/05/20 10:38:33;;;;;;;5.72;2.63;;;18.50;99.90;;;;;;5052470;28;20025;-48
2022/05/20 10:41:05;;;;;;;6.85;2.33;;;18.60;99.90;;;;;;5050249;28;20072;-47
2022/05/20 10:48:34;;;;;;;4.60;2.20;;;18.60;99.90;;;;;;5051991;28;20079;-48
2022/05/20 10:49:45;;;;;;;5.38;2.17;;;18.50;99.90;;;;;;5051421;28;20032;-51
2022/05/20 10:52:29;;;;;;;7.10;2.70;;;18.60;99.90;;;;;;5051974;28;20074;-47
2022/05/20 10:55:01;;;;;;;4.25;3.03;;;18.70;99.90;;;;;;5052031;28;20491;-48
2022/05/20 10:58:01;;;;;;;2.80;2.20;;;18.60;99.90;;;;;;5051886;28;20143;-45
2022/05/20 11:00:45;;;;;;;4.05;2.75;;;18.70;99.90;;;;;;5051918;28;20361;-48
2022/05/20 11:03:48;;;;;;;4.05;2.65;;;18.50;99.90;;;;;;5051534;28;20013;-46
2022/05/20 11:06:34;;;;;;;5.72;2.92;;;18.70;99.90;;;;;;5052481;28;20017;-51
2022/05/20 11:09:06;;;;;;;3.10;2.35;;;18.90;99.90;;;;;;5052100;28;20029;-50
2022/05/20 11:11:55;;;;;;;2.58;2.25;;;18.90;99.90;;;;;;5051889;28;20025;-46
2022/05/20 11:14:49;;;;;;;4.38;2.45;;;19.00;99.90;;;;;;5052197;28;20056;-50
2022/05/20 11:17:56;;;;;;;4.20;2.60;;;19.20;99.90;;;;;;5050786;28;20037;-49
2022/05/20 11:20:37;;;;;;;6.18;2.78;;;19.10;99.90;;;;;;5051453;28;20025;-47
2022/05/20 11:23:26;;;;;;;7.00;3.13;;;19.10;99.90;;;;;;5050819;28;20056;-47
2022/05/20 11:26:30;;;;;;;9.05;2.55;;;19.20;99.90;;;;;;5051383;28;20036;-47
2022/05/20 11:29:23;;;;;;;6.38;2.78;;;19.20;99.90;;;;;;5051519;28;20017;-49
2022/05/20 11:32:01;;;;;;;5.20;2.60;;;19.30;99.90;;;;;;5051188;28;20032;-50
2022/05/20 11:34:51;;;;;;;3.53;2.17;;;19.30;99.90;;;;;;5051202;28;20447;-48
2022/05/20 11:37:20;;;;;;;4.25;2.63;;;19.40;99.90;;;;;;5051080;28;20029;-45
2022/05/20 11:39:54;;;;;;;4.28;2.85;;;19.60;99.90;;;;;;5050793;28;20025;-48
2022/05/20 11:42:41;;;;;;;3.42;2.60;;;19.60;99.90;;;;;;5049448;28;20479;-47
2022/05/20 11:45:15;;;;;;;7.82;3.60;;;19.80;99.90;;;;;;5049483;28;20525;-47
2022/05/20 11:48:15;;;;;;;3.03;2.25;;;19.80;99.90;;;;;;5050810;28;20029;-45
2022/05/20 11:51:16;;;;;;;4.07;2.28;;;19.90;99.90;;;;;;5051542;28;20048;-46
2022/05/20 11:54:06;;;;;;;4.07;2.22;;;20.00;99.90;;;;;;5050634;28;20036;-50
2022/05/20 11:56:50;;;;;;;5.00;2.33;;;20.00;99.90;;;;;;5050567;28;20024;-47
2022/05/20 11:59:41;;;;;;;4.43;2.85;;;19.80;99.00;;;;;;5050756;28;20017;-50
2022/05/20 12:02:11;;;;;;;7.40;2.72;;;19.80;99.90;;;;;;5050530;28;20045;-47
2022/05/20 12:04:40;;;;;;;4.75;2.88;;;19.80;99.90;;;;;;5050376;28;20024;-47
2022/05/20 12:07:09;;;;;;;5.25;2.78;;;19.80;99.90;;;;;;5050910;28;20633;-50
2022/05/20 12:09:44;;;;;;;6.28;2.65;;;19.80;99.90;;;;;;5050661;28;20052;-47
2022/05/20 12:12:11;;;;;;;;;;;20.00;99.90;;;;;;5050865;28;20028;-48
2022/05/20 12:15:05;;;;;;;3.72;1.85;;;20.00;99.90;;;;;;5050417;28;20301;-47
2022/05/20 12:17:39;;;;;;;2.72;2.05;;;20.00;99.90;;;;;;5050395;28;20166;-46
2022/05/20 12:26:11;;;;;;;5.55;2.58;;;20.00;99.90;;;;;;5050389;28;20021;-52
2022/05/20 12:28:39;;;;;;;4.40;2.40;;;19.80;99.30;;;;;;5038506;28;20499;-45
2022/05/20 12:31:13;;;;;;;5.63;2.45;;;19.70;98.00;;;;;;5050027;28;20043;-48
2022/05/20 12:34:00;;;;;;;3.58;1.60;;;19.80;99.90;;;;;;5049817;28;20155;-47
2022/05/20 12:36:28;;;;;;;5.47;2.25;;;20.00;99.90;;;;;;5049888;28;20036;-49
2022/05/20 12:39:09;;;;;;;4.50;2.30;;;20.10;99.90;;;;;;5049847;28;20131;-47
2022/05/20 12:41:39;;;;;;;3.05;1.42;;;20.20;99.90;;;;;;5049739;28;20088;-51
2022/05/20 12:44:17;;;;;;;5.55;2.20;;;20.30;99.90;;;;;;5049590;28;20029;-48
2022/05/20 12:47:04;;;;;;;4.55;2.38;;;20.20;99.90;;;;;;5050336;28;20025;-48
2022/05/20 12:49:54;;;;;;;5.50;2.25;;;20.10;98.90;;;;;;5049879;28;20029;-48
2022/05/20 12:52:19;;;;;;;6.20;2.30;;;19.90;97.70;;;;;;5049852;28;20028;-46
2022/05/20 12:54:52;;;;;;;4.10;2.25;;;20.10;99.00;;;;;;5049644;28;20692;-47
2022/05/20 12:57:25;;;;;;;3.58;2.00;;;20.10;97.20;;;;;;5049859;28;20037;-48
2022/05/20 12:59:58;;;;;;;4.95;2.08;;;20.10;95.80;;;;;;5050066;28;20442;-48
2022/05/20 13:02:28;;;;;;;3.30;2.10;;;20.20;96.80;;;;;;5049661;28;20387;-46
2022/05/20 13:05:34;;;;;;;4.50;2.35;;;20.30;95.80;;;;;;5048359;28;20026;-49
2022/05/20 13:08:03;;;;;;;4.55;1.70;;;20.40;97.20;;;;;;5038572;28;20418;-46
2022/05/20 13:10:29;;;;;;;3.60;2.38;;;20.70;97.80;;;;;;5049683;28;20100;-48
2022/05/20 13:13:02;;;;;;;4.25;2.47;;;20.80;95.70;;;;;;5049542;28;20570;-48
2022/05/20 13:15:28;;;;;;;6.05;2.35;;;20.50;95.50;;;;;;5049566;28;20021;-47
2022/05/20 13:18:17;;;;;;;4.45;1.55;;;20.40;94.60;;;;;;5049563;28;20731;-52
2022/05/20 13:20:43;;;;;;;2.45;1.55;;;20.40;94.20;;;;;;5049910;28;20029;-50
2022/05/20 13:23:16;;;;;;;4.32;2.25;;;20.60;97.80;;;;;;5050156;28;20387;-50
2022/05/20 13:25:46;;;;;;;6.70;2.20;;;20.90;98.70;;;;;;5049895;28;20059;-53
2022/05/20 13:28:20;;;;;;;4.65;2.50;;;21.10;97.40;;;;;;5049594;28;20116;-49
2022/05/20 13:30:46;;;;;;;4.55;2.13;;;21.20;93.30;;;;;;5049675;28;20435;-47
2022/05/20 13:33:12;;;;;;;2.92;1.55;;;21.10;93.00;;;;;;5049288;28;20041;-49
2022/05/20 13:35:50;;;;;;;3.97;2.42;;;21.10;93.90;;;;;;5049379;28;20029;-47
2022/05/20 13:38:16;;;;;;;2.70;1.90;;;21.20;96.70;;;;;;5049507;28;20052;-48
2022/05/20 13:40:43;;;;;;;5.43;2.40;;;21.20;95.40;;;;;;5049396;28;20114;-47
2022/05/20 13:43:12;;;;;;;4.47;2.25;;;21.20;95.40;;;;;;5049258;28;20029;-49
2022/05/20 13:51:27;;;;;;;3.45;2.60;;;21.40;94.60;;;;;;5049431;28;20036;-51
2022/05/20 13:53:55;;;;;;;3.45;2.00;;;21.40;92.10;;;;;;5048222;28;20498;-49